sensor_id;sensor_type;location;lat;lon;timestamp;temperature;humidity
15044;DHT22;7619;48.562;8.910;2022-07-29T00:01:02;18.50;99.90
15044;DHT22;7619;48.562;8.910;2022-07-29T00:03:31;18.40;99.90
15044;DHT22;7619;48.562;8.910;2022-07-29T00:06:00;18.40;99.90
15044;DHT22;7619;48.562;8.910;2022-07-29T00:08:29;18.20;99.90
15044;DHT22;7619;48.562;8.910;2022-07-29T00:13:25;18.10;99.90
15044;DHT22;7619;48.562;8.910;2022-07-29T00:15:54;18.10;99.90
15044;DHT22;7619;48.562;8.910;2022-07-29T00:18:23;18.00;99.90
15044;DHT22;7619;48.562;8.910;2022-07-29T00:23:20;18.00;99.90
15044;DHT22;7619;48.562;8.910;2022-07-29T00:28:17;18.00;99.90
15044;DHT22;7619;48.562;8.910;2022-07-29T00:30:46;17.90;99.90
15044;DHT22;7619;48.562;8.910;2022-07-29T00:33:14;17.80;99.90
15044;DHT22;7619;48.562;8.910;2022-07-29T00:35:43;17.90;99.90
15044;DHT22;7619;48.562;8.910;2022-07-29T00:38:13;17.80;99.90
15044;DHT22;7619;48.562;8.910;2022-07-29T00:40:43;17.90;99.90
15044;DHT22;7619;48.562;8.910;2022-07-29T00:43:12;17.80;99.90
15044;DHT22;7619;48.562;8.910;2022-07-29T00:45:42;17.90;99.90
15044;DHT22;7619;48.562;8.910;2022-07-29T00:48:11;17.90;99.90
15044;DHT22;7619;48.562;8.910;2022-07-29T00:50:39;17.90;99.90
15044;DHT22;7619;48.562;8.910;2022-07-29T00:53:09;17.70;99.90
15044;DHT22;7619;48.562;8.910;2022-07-29T00:55:39;17.70;99.90
15044;DHT22;7619;48.562;8.910;2022-07-29T01:00:36;17.70;99.90
15044;DHT22;7619;48.562;8.910;2022-07-29T01:03:07;17.60;99.90
15044;DHT22;7619;48.562;8.910;2022-07-29T01:05:36;17.60;99.90
15044;DHT22;7619;48.562;8.910;2022-07-29T01:08:06;17.60;99.90
15044;DHT22;7619;48.562;8.910;2022-07-29T01:10:37;17.60;99.90
15044;DHT22;7619;48.562;8.910;2022-07-29T01:13:06;17.60;99.90
15044;DHT22;7619;48.562;8.910;2022-07-29T01:15:38;17.70;99.90
15044;DHT22;7619;48.562;8.910;2022-07-29T01:23:37;17.60;99.90
15044;DHT22;7619;48.562;8.910;2022-07-29T01:26:30;17.60;99.90
15044;DHT22;7619;48.562;8.910;2022-07-29T01:29:13;17.60;99.90
15044;DHT22;7619;48.562;8.910;2022-07-29T01:31:47;17.50;99.90
15044;DHT22;7619;48.562;8.910;2022-07-29T01:34:20;17.40;99.90
15044;DHT22;7619;48.562;8.910;2022-07-29T01:36:54;17.50;99.90
15044;DHT22;7619;48.562;8.910;2022-07-29T01:39:26;17.50;99.90
15044;DHT22;7619;48.562;8.910;2022-07-29T01:41:57;17.50;99.90
15044;DHT22;7619;48.562;8.910;2022-07-29T01:47:00;17.40;99.90
15044;DHT22;7619;48.562;8.910;2022-07-29T01:49:31;17.40;99.90
15044;DHT22;7619;48.562;8.910;2022-07-29T01:52:05;17.50;99.90
15044;DHT22;7619;48.562;8.910;2022-07-29T01:54:37;17.50;99.90
15044;DHT22;7619;48.562;8.910;2022-07-29T01:57:08;17.50;99.90
15044;DHT22;7619;48.562;8.910;2022-07-29T02:02:10;17.30;99.90
15044;DHT22;7619;48.562;8.910;2022-07-29T02:04:40;17.30;99.90
15044;DHT22;7619;48.562;8.910;2022-07-29T02:07:13;17.30;99.90
15044;DHT22;7619;48.562;8.910;2022-07-29T02:09:44;17.20;99.90
15044;DHT22;7619;48.562;8.910;2022-07-29T02:12:16;17.30;99.90
15044;DHT22;7619;48.562;8.910;2022-07-29T02:14:47;17.20;99.90
15044;DHT22;7619;48.562;8.910;2022-07-29T02:17:18;17.10;99.90
15044;DHT22;7619;48.562;8.910;2022-07-29T02:19:48;17.10;99.90
15044;DHT22;7619;48.562;8.910;2022-07-29T02:22:19;17.00;99.90
15044;DHT22;7619;48.562;8.910;2022-07-29T02:24:49;17.00;99.90
15044;DHT22;7619;48.562;8.910;2022-07-29T02:27:20;17.00;99.90
15044;DHT22;7619;48.562;8.910;2022-07-29T02:29:50;16.90;99.90
15044;DHT22;7619;48.562;8.910;2022-07-29T02:34:49;17.00;99.90
15044;DHT22;7619;48.562;8.910;2022-07-29T02:37:20;17.00;99.90
15044;DHT22;7619;48.562;8.910;2022-07-29T02:39:50;16.90;99.90
15044;DHT22;7619;48.562;8.910;2022-07-29T02:42:22;16.90;99.90
15044;DHT22;7619;48.562;8.910;2022-07-29T02:44:52;16.90;99.90
15044;DHT22;7619;48.562;8.910;2022-07-29T02:47:24;16.80;99.90
15044;DHT22;7619;48.562;8.910;2022-07-29T02:49:57;16.90;99.90
15044;DHT22;7619;48.562;8.910;2022-07-29T02:52:28;16.90;99.90
15044;DHT22;7619;48.562;8.910;2022-07-29T02:57:41;16.80;99.90
15044;DHT22;7619;48.562;8.910;2022-07-29T03:00:12;16.90;99.90
15044;DHT22;7619;48.562;8.910;2022-07-29T03:02:44;16.90;99.90
15044;DHT22;7619;48.562;8.910;2022-07-29T03:05:17;16.80;99.90
15044;DHT22;7619;48.562;8.910;2022-07-29T03:07:49;16.70;99.90
15044;DHT22;7619;48.562;8.910;2022-07-29T03:10:19;16.60;99.90
15044;DHT22;7619;48.562;8.910;2022-07-29T03:12:48;16.60;99.90
15044;DHT22;7619;48.562;8.910;2022-07-29T03:15:18;16.50;99.90
15044;DHT22;7619;48.562;8.910;2022-07-29T03:17:47;16.50;99.90
15044;DHT22;7619;48.562;8.910;2022-07-29T03:20:17;16.40;99.90
15044;DHT22;7619;48.562;8.910;2022-07-29T03:22:46;16.40;99.90
15044;DHT22;7619;48.562;8.910;2022-07-29T03:25:17;16.40;99.90
15044;DHT22;7619;48.562;8.910;2022-07-29T03:27:47;16.30;99.90
15044;DHT22;7619;48.562;8.910;2022-07-29T03:30:16;16.30;99.90
15044;DHT22;7619;48.562;8.910;2022-07-29T03:32:45;16.30;99.90
15044;DHT22;7619;48.562;8.910;2022-07-29T03:35:14;16.30;99.90
15044;DHT22;7619;48.562;8.910;2022-07-29T03:37:44;16.40;99.90
15044;DHT22;7619;48.562;8.910;2022-07-29T03:40:16;16.40;99.90
15044;DHT22;7619;48.562;8.910;2022-07-29T03:42:46;16.40;99.90
15044;DHT22;7619;48.562;8.910;2022-07-29T03:45:17;16.40;99.90
15044;DHT22;7619;48.562;8.910;2022-07-29T03:47:49;16.40;99.90
15044;DHT22;7619;48.562;8.910;2022-07-29T03:50:20;16.40;99.90
15044;DHT22;7619;48.562;8.910;2022-07-29T03:52:51;16.40;99.90
15044;DHT22;7619;48.562;8.910;2022-07-29T03:57:49;16.40;99.90
15044;DHT22;7619;48.562;8.910;2022-07-29T04:00:18;16.50;99.90
15044;DHT22;7619;48.562;8.910;2022-07-29T04:05:17;16.40;99.90
15044;DHT22;7619;48.562;8.910;2022-07-29T04:07:46;16.40;99.90
15044;DHT22;7619;48.562;8.910;2022-07-29T04:10:16;16.40;99.90
15044;DHT22;7619;48.562;8.910;2022-07-29T04:12:46;16.40;99.90
15044;DHT22;7619;48.562;8.910;2022-07-29T04:15:15;16.50;99.90
15044;DHT22;7619;48.562;8.910;2022-07-29T04:17:44;16.60;99.90
15044;DHT22;7619;48.562;8.910;2022-07-29T04:20:13;16.60;99.90
15044;DHT22;7619;48.562;8.910;2022-07-29T04:22:42;16.70;99.90
15044;DHT22;7619;48.562;8.910;2022-07-29T04:25:11;16.70;99.90
15044;DHT22;7619;48.562;8.910;2022-07-29T04:27:40;16.80;99.90
15044;DHT22;7619;48.562;8.910;2022-07-29T04:30:29;16.90;99.90
15044;DHT22;7619;48.562;8.910;2022-07-29T04:32:58;16.90;99.90
15044;DHT22;7619;48.562;8.910;2022-07-29T04:35:28;17.10;99.90
15044;DHT22;7619;48.562;8.910;2022-07-29T04:40:26;17.60;99.90
15044;DHT22;7619;48.562;8.910;2022-07-29T04:42:55;17.80;99.90
15044;DHT22;7619;48.562;8.910;2022-07-29T04:45:24;17.90;99.90
15044;DHT22;7619;48.562;8.910;2022-07-29T04:47:53;17.90;99.90
15044;DHT22;7619;48.562;8.910;2022-07-29T04:50:22;18.00;99.90
15044;DHT22;7619;48.562;8.910;2022-07-29T04:55:20;18.50;99.90
15044;DHT22;7619;48.562;8.910;2022-07-29T04:57:49;18.70;99.90
15044;DHT22;7619;48.562;8.910;2022-07-29T05:00:18;19.20;99.90
15044;DHT22;7619;48.562;8.910;2022-07-29T05:02:47;19.80;99.90
15044;DHT22;7619;48.562;8.910;2022-07-29T05:05:16;20.40;99.90
15044;DHT22;7619;48.562;8.910;2022-07-29T05:07:44;21.20;99.90
15044;DHT22;7619;48.562;8.910;2022-07-29T05:10:13;21.70;99.90
15044;DHT22;7619;48.562;8.910;2022-07-29T05:12:42;22.10;99.90
15044;DHT22;7619;48.562;8.910;2022-07-29T05:15:11;22.20;99.90
15044;DHT22;7619;48.562;8.910;2022-07-29T05:17:40;21.80;99.90
15044;DHT22;7619;48.562;8.910;2022-07-29T05:20:10;22.10;99.90
15044;DHT22;7619;48.562;8.910;2022-07-29T05:22:39;22.10;99.90
15044;DHT22;7619;48.562;8.910;2022-07-29T05:25:09;22.20;99.90
15044;DHT22;7619;48.562;8.910;2022-07-29T05:27:37;21.80;99.90
15044;DHT22;7619;48.562;8.910;2022-07-29T05:30:09;21.90;99.90
15044;DHT22;7619;48.562;8.910;2022-07-29T05:32:38;22.30;99.90
15044;DHT22;7619;48.562;8.910;2022-07-29T05:35:08;22.70;99.90
15044;DHT22;7619;48.562;8.910;2022-07-29T05:37:37;23.00;99.90
15044;DHT22;7619;48.562;8.910;2022-07-29T05:40:07;23.00;99.90
15044;DHT22;7619;48.562;8.910;2022-07-29T05:42:37;22.80;1.00
15044;DHT22;7619;48.562;8.910;2022-07-29T05:45:08;23.10;99.90
15044;DHT22;7619;48.562;8.910;2022-07-29T05:47:36;23.60;99.90
15044;DHT22;7619;48.562;8.910;2022-07-29T05:50:07;23.50;99.90
15044;DHT22;7619;48.562;8.910;2022-07-29T05:52:36;23.20;1.00
15044;DHT22;7619;48.562;8.910;2022-07-29T05:55:07;23.50;89.00
15044;DHT22;7619;48.562;8.910;2022-07-29T05:57:38;23.30;28.50
15044;DHT22;7619;48.562;8.910;2022-07-29T06:00:09;23.50;1.00
15044;DHT22;7619;48.562;8.910;2022-07-29T06:02:38;23.20;1.00
15044;DHT22;7619;48.562;8.910;2022-07-29T06:05:08;24.00;99.90
15044;DHT22;7619;48.562;8.910;2022-07-29T06:07:36;24.90;99.90
15044;DHT22;7619;48.562;8.910;2022-07-29T06:12:34;27.00;1.00
15044;DHT22;7619;48.562;8.910;2022-07-29T06:15:04;27.70;99.90
15044;DHT22;7619;48.562;8.910;2022-07-29T06:17:33;27.70;1.00
15044;DHT22;7619;48.562;8.910;2022-07-29T06:20:03;28.70;1.00
15044;DHT22;7619;48.562;8.910;2022-07-29T06:22:32;28.60;99.90
15044;DHT22;7619;48.562;8.910;2022-07-29T06:32:36;28.50;99.90
15044;DHT22;7619;48.562;8.910;2022-07-29T06:40:12;27.80;99.90
15044;DHT22;7619;48.562;8.910;2022-07-29T06:43:09;27.00;9.20
15044;DHT22;7619;48.562;8.910;2022-07-29T06:45:38;26.20;1.00
15044;DHT22;7619;48.562;8.910;2022-07-29T06:48:08;25.70;1.00
15044;DHT22;7619;48.562;8.910;2022-07-29T06:50:37;25.20;1.00
15044;DHT22;7619;48.562;8.910;2022-07-29T06:53:07;24.80;1.00
15044;DHT22;7619;48.562;8.910;2022-07-29T06:55:36;25.40;1.00
15044;DHT22;7619;48.562;8.910;2022-07-29T06:58:05;25.50;1.00
15044;DHT22;7619;48.562;8.910;2022-07-29T07:03:03;25.80;1.00
15044;DHT22;7619;48.562;8.910;2022-07-29T07:05:32;25.80;1.00
15044;DHT22;7619;48.562;8.910;2022-07-29T07:08:01;26.40;1.00
15044;DHT22;7619;48.562;8.910;2022-07-29T07:10:30;26.10;8.20
15044;DHT22;7619;48.562;8.910;2022-07-29T07:15:37;25.80;1.00
15044;DHT22;7619;48.562;8.910;2022-07-29T07:18:06;26.20;1.00
15044;DHT22;7619;48.562;8.910;2022-07-29T07:20:35;26.70;1.00
15044;DHT22;7619;48.562;8.910;2022-07-29T07:23:04;26.10;1.00
15044;DHT22;7619;48.562;8.910;2022-07-29T07:25:33;25.60;1.00
15044;DHT22;7619;48.562;8.910;2022-07-29T07:30:30;24.70;1.00
15044;DHT22;7619;48.562;8.910;2022-07-29T07:33:00;24.40;1.00
15044;DHT22;7619;48.562;8.910;2022-07-29T07:37:57;24.80;1.00
15044;DHT22;7619;48.562;8.910;2022-07-29T07:40:27;25.30;1.00
15044;DHT22;7619;48.562;8.910;2022-07-29T07:42:55;26.00;1.00
15044;DHT22;7619;48.562;8.910;2022-07-29T07:45:24;27.10;58.70
15044;DHT22;7619;48.562;8.910;2022-07-29T07:47:53;27.80;99.90
15044;DHT22;7619;48.562;8.910;2022-07-29T07:52:52;28.80;99.50
15044;DHT22;7619;48.562;8.910;2022-07-29T07:57:50;28.70;49.60
15044;DHT22;7619;48.562;8.910;2022-07-29T08:00:20;28.00;1.00
15044;DHT22;7619;48.562;8.910;2022-07-29T08:02:50;27.20;1.00
15044;DHT22;7619;48.562;8.910;2022-07-29T08:05:19;27.00;1.00
15044;DHT22;7619;48.562;8.910;2022-07-29T08:07:48;26.90;1.00
15044;DHT22;7619;48.562;8.910;2022-07-29T08:10:18;26.90;1.00
15044;DHT22;7619;48.562;8.910;2022-07-29T08:15:35;27.40;1.00
15044;DHT22;7619;48.562;8.910;2022-07-29T08:18:05;27.40;1.00
15044;DHT22;7619;48.562;8.910;2022-07-29T08:20:34;27.80;23.70
15044;DHT22;7619;48.562;8.910;2022-07-29T08:25:32;29.30;99.90
15044;DHT22;7619;48.562;8.910;2022-07-29T08:30:36;30.20;99.90
15044;DHT22;7619;48.562;8.910;2022-07-29T08:35:41;30.00;99.90
15044;DHT22;7619;48.562;8.910;2022-07-29T08:40:46;30.70;99.90
15044;DHT22;7619;48.562;8.910;2022-07-29T08:43:15;30.30;99.90
15044;DHT22;7619;48.562;8.910;2022-07-29T08:45:46;30.60;99.90
15044;DHT22;7619;48.562;8.910;2022-07-29T08:50:46;31.20;99.90
15044;DHT22;7619;48.562;8.910;2022-07-29T08:53:17;31.40;99.90
15044;DHT22;7619;48.562;8.910;2022-07-29T08:55:48;31.40;99.90
15044;DHT22;7619;48.562;8.910;2022-07-29T08:58:18;31.20;99.90
15044;DHT22;7619;48.562;8.910;2022-07-29T09:00:50;31.50;99.90
15044;DHT22;7619;48.562;8.910;2022-07-29T09:03:22;31.50;99.90
15044;DHT22;7619;48.562;8.910;2022-07-29T09:05:51;31.70;99.90
15044;DHT22;7619;48.562;8.910;2022-07-29T09:08:21;31.50;99.90
15044;DHT22;7619;48.562;8.910;2022-07-29T09:10:50;31.40;99.90
15044;DHT22;7619;48.562;8.910;2022-07-29T09:13:19;31.40;99.90
15044;DHT22;7619;48.562;8.910;2022-07-29T09:15:48;30.90;99.90
15044;DHT22;7619;48.562;8.910;2022-07-29T09:18:34;30.90;99.90
15044;DHT22;7619;48.562;8.910;2022-07-29T09:21:04;30.30;99.90
15044;DHT22;7619;48.562;8.910;2022-07-29T09:26:30;29.50;99.90
15044;DHT22;7619;48.562;8.910;2022-07-29T09:31:33;29.10;59.50
15044;DHT22;7619;48.562;8.910;2022-07-29T09:34:03;29.00;85.30
15044;DHT22;7619;48.562;8.910;2022-07-29T09:36:38;29.10;82.90
15044;DHT22;7619;48.562;8.910;2022-07-29T09:39:07;29.00;71.00
15044;DHT22;7619;48.562;8.910;2022-07-29T09:41:50;29.20;70.20
15044;DHT22;7619;48.562;8.910;2022-07-29T09:44:21;29.40;65.20
15044;DHT22;7619;48.562;8.910;2022-07-29T09:49:26;30.10;99.50
15044;DHT22;7619;48.562;8.910;2022-07-29T09:52:07;30.30;97.60
15044;DHT22;7619;48.562;8.910;2022-07-29T09:54:37;30.80;99.90
15044;DHT22;7619;48.562;8.910;2022-07-29T09:57:07;30.40;99.90
15044;DHT22;7619;48.562;8.910;2022-07-29T10:07:19;30.50;99.90
15044;DHT22;7619;48.562;8.910;2022-07-29T10:09:53;31.10;99.90
15044;DHT22;7619;48.562;8.910;2022-07-29T10:12:23;31.00;99.90
15044;DHT22;7619;48.562;8.910;2022-07-29T10:17:29;31.20;99.90
15044;DHT22;7619;48.562;8.910;2022-07-29T10:22:36;30.70;99.90
15044;DHT22;7619;48.562;8.910;2022-07-29T10:25:05;30.80;99.90
15044;DHT22;7619;48.562;8.910;2022-07-29T10:27:35;31.00;99.90
15044;DHT22;7619;48.562;8.910;2022-07-29T10:30:06;30.60;99.90
15044;DHT22;7619;48.562;8.910;2022-07-29T10:32:58;29.90;99.90
15044;DHT22;7619;48.562;8.910;2022-07-29T10:41:31;29.40;98.50
15044;DHT22;7619;48.562;8.910;2022-07-29T10:44:05;28.90;69.30
15044;DHT22;7619;48.562;8.910;2022-07-29T10:46:37;27.90;78.70
15044;DHT22;7619;48.562;8.910;2022-07-29T10:49:09;26.90;43.20
15044;DHT22;7619;48.562;8.910;2022-07-29T10:52:01;25.70;3.20
15044;DHT22;7619;48.562;8.910;2022-07-29T10:54:58;23.90;1.00
15044;DHT22;7619;48.562;8.910;2022-07-29T10:57:30;22.70;1.00
15044;DHT22;7619;48.562;8.910;2022-07-29T11:00:28;22.30;1.00
15044;DHT22;7619;48.562;8.910;2022-07-29T11:02:58;22.80;1.00
15044;DHT22;7619;48.562;8.910;2022-07-29T11:08:17;22.80;1.00
15044;DHT22;7619;48.562;8.910;2022-07-29T11:10:48;23.30;1.00
15044;DHT22;7619;48.562;8.910;2022-07-29T11:13:48;23.40;1.00
15044;DHT22;7619;48.562;8.910;2022-07-29T11:21:39;22.80;1.00
15044;DHT22;7619;48.562;8.910;2022-07-29T11:24:15;22.80;68.00
15044;DHT22;7619;48.562;8.910;2022-07-29T11:26:44;22.60;99.90
15044;DHT22;7619;48.562;8.910;2022-07-29T11:29:20;22.60;1.00
15044;DHT22;7619;48.562;8.910;2022-07-29T11:34:25;21.30;1.00
15044;DHT22;7619;48.562;8.910;2022-07-29T11:37:14;21.20;99.90
15044;DHT22;7619;48.562;8.910;2022-07-29T11:39:44;21.10;1.00
15044;DHT22;7619;48.562;8.910;2022-07-29T11:42:48;21.20;1.00
15044;DHT22;7619;48.562;8.910;2022-07-29T11:45:23;20.90;1.00
15044;DHT22;7619;48.562;8.910;2022-07-29T11:47:56;20.80;99.90
15044;DHT22;7619;48.562;8.910;2022-07-29T11:50:33;21.00;1.00
15044;DHT22;7619;48.562;8.910;2022-07-29T11:53:09;21.40;99.90
15044;DHT22;7619;48.562;8.910;2022-07-29T11:55:35;21.50;99.90
15044;DHT22;7619;48.562;8.910;2022-07-29T11:58:06;21.90;1.00
15044;DHT22;7619;48.562;8.910;2022-07-29T12:00:37;22.00;1.00
15044;DHT22;7619;48.562;8.910;2022-07-29T12:03:08;22.10;99.90
15044;DHT22;7619;48.562;8.910;2022-07-29T12:05:41;22.60;1.00
15044;DHT22;7619;48.562;8.910;2022-07-29T12:08:15;22.90;1.00
15044;DHT22;7619;48.562;8.910;2022-07-29T12:10:46;23.20;1.00
15044;DHT22;7619;48.562;8.910;2022-07-29T12:13:16;23.30;1.00
15044;DHT22;7619;48.562;8.910;2022-07-29T12:18:21;24.00;1.00
15044;DHT22;7619;48.562;8.910;2022-07-29T12:23:20;24.90;1.00
15044;DHT22;7619;48.562;8.910;2022-07-29T12:28:17;25.20;99.90
15044;DHT22;7619;48.562;8.910;2022-07-29T12:30:48;25.10;99.90
15044;DHT22;7619;48.562;8.910;2022-07-29T12:35:50;24.60;1.00
15044;DHT22;7619;48.562;8.910;2022-07-29T12:38:20;24.50;99.90
15044;DHT22;7619;48.562;8.910;2022-07-29T12:40:50;24.30;1.00
15044;DHT22;7619;48.562;8.910;2022-07-29T12:43:21;24.00;1.00
15044;DHT22;7619;48.562;8.910;2022-07-29T12:48:32;22.70;13.10
15044;DHT22;7619;48.562;8.910;2022-07-29T12:51:03;22.10;99.90
15044;DHT22;7619;48.562;8.910;2022-07-29T12:58:33;21.80;1.00
15044;DHT22;7619;48.562;8.910;2022-07-29T13:01:07;22.00;1.00
15044;DHT22;7619;48.562;8.910;2022-07-29T13:03:48;22.20;1.00
15044;DHT22;7619;48.562;8.910;2022-07-29T13:06:36;22.90;99.90
15044;DHT22;7619;48.562;8.910;2022-07-29T13:09:16;23.60;99.90
15044;DHT22;7619;48.562;8.910;2022-07-29T13:11:47;24.00;1.00
15044;DHT22;7619;48.562;8.910;2022-07-29T13:14:30;23.80;1.00
15044;DHT22;7619;48.562;8.910;2022-07-29T13:19:36;23.60;66.00
15044;DHT22;7619;48.562;8.910;2022-07-29T13:22:08;23.80;99.90
15044;DHT22;7619;48.562;8.910;2022-07-29T13:24:50;24.00;1.00
15044;DHT22;7619;48.562;8.910;2022-07-29T13:29:48;24.40;1.00
15044;DHT22;7619;48.562;8.910;2022-07-29T13:32:19;24.80;1.00
15044;DHT22;7619;48.562;8.910;2022-07-29T13:37:16;25.30;99.90
15044;DHT22;7619;48.562;8.910;2022-07-29T13:39:45;25.30;99.90
15044;DHT22;7619;48.562;8.910;2022-07-29T13:42:15;25.50;99.90
15044;DHT22;7619;48.562;8.910;2022-07-29T13:44:44;25.50;99.90
15044;DHT22;7619;48.562;8.910;2022-07-29T13:47:13;25.70;1.00
15044;DHT22;7619;48.562;8.910;2022-07-29T13:49:43;25.50;1.00
15044;DHT22;7619;48.562;8.910;2022-07-29T13:52:12;25.80;1.00
15044;DHT22;7619;48.562;8.910;2022-07-29T13:54:41;26.20;1.00
15044;DHT22;7619;48.562;8.910;2022-07-29T13:57:11;26.50;1.00
15044;DHT22;7619;48.562;8.910;2022-07-29T13:59:40;26.30;1.00
15044;DHT22;7619;48.562;8.910;2022-07-29T14:02:11;26.60;1.00
15044;DHT22;7619;48.562;8.910;2022-07-29T14:04:41;26.60;1.00
15044;DHT22;7619;48.562;8.910;2022-07-29T14:07:09;26.50;1.00
15044;DHT22;7619;48.562;8.910;2022-07-29T14:09:39;26.40;1.00
15044;DHT22;7619;48.562;8.910;2022-07-29T14:12:09;26.70;1.00
15044;DHT22;7619;48.562;8.910;2022-07-29T14:19:34;26.70;1.00
15044;DHT22;7619;48.562;8.910;2022-07-29T14:22:06;26.90;1.00
15044;DHT22;7619;48.562;8.910;2022-07-29T14:24:36;27.00;1.00
15044;DHT22;7619;48.562;8.910;2022-07-29T14:27:06;27.10;1.00
15044;DHT22;7619;48.562;8.910;2022-07-29T14:29:35;26.90;1.00
15044;DHT22;7619;48.562;8.910;2022-07-29T14:32:05;26.90;1.00
15044;DHT22;7619;48.562;8.910;2022-07-29T14:34:34;26.90;1.00
15044;DHT22;7619;48.562;8.910;2022-07-29T14:37:04;26.80;1.00
15044;DHT22;7619;48.562;8.910;2022-07-29T14:39:33;26.60;1.00
15044;DHT22;7619;48.562;8.910;2022-07-29T14:42:04;26.00;1.00
15044;DHT22;7619;48.562;8.910;2022-07-29T14:44:32;26.00;1.00
15044;DHT22;7619;48.562;8.910;2022-07-29T14:47:01;26.20;1.00
15044;DHT22;7619;48.562;8.910;2022-07-29T14:49:31;26.20;1.00
15044;DHT22;7619;48.562;8.910;2022-07-29T14:51:59;26.40;1.00
15044;DHT22;7619;48.562;8.910;2022-07-29T14:54:28;26.30;1.00
15044;DHT22;7619;48.562;8.910;2022-07-29T14:56:57;26.50;1.00
15044;DHT22;7619;48.562;8.910;2022-07-29T14:59:26;26.40;1.00
15044;DHT22;7619;48.562;8.910;2022-07-29T15:01:55;26.40;1.00
15044;DHT22;7619;48.562;8.910;2022-07-29T15:04:24;26.20;1.00
15044;DHT22;7619;48.562;8.910;2022-07-29T15:06:53;26.40;1.00
15044;DHT22;7619;48.562;8.910;2022-07-29T15:09:22;26.30;1.00
15044;DHT22;7619;48.562;8.910;2022-07-29T15:11:51;26.50;1.00
15044;DHT22;7619;48.562;8.910;2022-07-29T15:14:20;26.70;1.00
15044;DHT22;7619;48.562;8.910;2022-07-29T15:19:17;26.60;1.00
15044;DHT22;7619;48.562;8.910;2022-07-29T15:21:46;26.50;1.00
15044;DHT22;7619;48.562;8.910;2022-07-29T15:24:15;26.60;1.00
15044;DHT22;7619;48.562;8.910;2022-07-29T15:26:44;26.50;1.00
15044;DHT22;7619;48.562;8.910;2022-07-29T15:29:13;26.50;1.00
15044;DHT22;7619;48.562;8.910;2022-07-29T15:31:43;26.40;1.00
15044;DHT22;7619;48.562;8.910;2022-07-29T15:34:12;26.20;1.00
15044;DHT22;7619;48.562;8.910;2022-07-29T15:36:41;26.20;1.00
15044;DHT22;7619;48.562;8.910;2022-07-29T15:39:10;25.80;1.00
15044;DHT22;7619;48.562;8.910;2022-07-29T15:41:39;25.60;1.00
15044;DHT22;7619;48.562;8.910;2022-07-29T15:44:08;25.30;1.00
15044;DHT22;7619;48.562;8.910;2022-07-29T15:46:37;25.50;1.00
15044;DHT22;7619;48.562;8.910;2022-07-29T15:49:24;25.50;1.00
15044;DHT22;7619;48.562;8.910;2022-07-29T15:51:55;25.70;1.00
15044;DHT22;7619;48.562;8.910;2022-07-29T15:54:24;25.90;1.00
15044;DHT22;7619;48.562;8.910;2022-07-29T15:56:54;26.10;1.00
15044;DHT22;7619;48.562;8.910;2022-07-29T16:01:52;26.30;1.00
15044;DHT22;7619;48.562;8.910;2022-07-29T16:04:21;26.50;1.00
15044;DHT22;7619;48.562;8.910;2022-07-29T16:06:51;26.70;1.00
15044;DHT22;7619;48.562;8.910;2022-07-29T16:09:20;26.90;25.50
15044;DHT22;7619;48.562;8.910;2022-07-29T16:11:50;26.90;31.40
15044;DHT22;7619;48.562;8.910;2022-07-29T16:14:20;26.90;22.20
15044;DHT22;7619;48.562;8.910;2022-07-29T16:16:49;26.90;16.50
15044;DHT22;7619;48.562;8.910;2022-07-29T16:19:18;26.80;4.90
15044;DHT22;7619;48.562;8.910;2022-07-29T16:21:47;26.70;10.40
15044;DHT22;7619;48.562;8.910;2022-07-29T16:24:16;26.60;16.70
15044;DHT22;7619;48.562;8.910;2022-07-29T16:29:13;26.20;1.00
15044;DHT22;7619;48.562;8.910;2022-07-29T16:31:42;26.10;1.00
15044;DHT22;7619;48.562;8.910;2022-07-29T16:34:11;26.00;1.00
15044;DHT22;7619;48.562;8.910;2022-07-29T16:36:40;25.90;18.50
15044;DHT22;7619;48.562;8.910;2022-07-29T16:39:09;25.60;1.00
15044;DHT22;7619;48.562;8.910;2022-07-29T16:41:39;25.70;1.00
15044;DHT22;7619;48.562;8.910;2022-07-29T16:46:37;25.90;25.60
15044;DHT22;7619;48.562;8.910;2022-07-29T16:54:02;26.10;62.50
15044;DHT22;7619;48.562;8.910;2022-07-29T16:56:30;26.00;85.20
15044;DHT22;7619;48.562;8.910;2022-07-29T17:01:28;25.80;99.90
15044;DHT22;7619;48.562;8.910;2022-07-29T17:03:57;25.70;99.90
15044;DHT22;7619;48.562;8.910;2022-07-29T17:06:37;25.80;99.90
15044;DHT22;7619;48.562;8.910;2022-07-29T17:09:07;25.90;99.90
15044;DHT22;7619;48.562;8.910;2022-07-29T17:11:36;25.90;99.90
15044;DHT22;7619;48.562;8.910;2022-07-29T17:14:05;25.80;99.90
15044;DHT22;7619;48.562;8.910;2022-07-29T17:19:02;25.50;99.90
15044;DHT22;7619;48.562;8.910;2022-07-29T17:21:31;25.50;99.90
15044;DHT22;7619;48.562;8.910;2022-07-29T17:24:00;25.40;99.90
15044;DHT22;7619;48.562;8.910;2022-07-29T17:26:29;25.40;99.90
15044;DHT22;7619;48.562;8.910;2022-07-29T17:28:58;25.60;99.90
15044;DHT22;7619;48.562;8.910;2022-07-29T17:31:27;25.60;99.90
15044;DHT22;7619;48.562;8.910;2022-07-29T17:33:56;25.60;99.90
15044;DHT22;7619;48.562;8.910;2022-07-29T17:38:55;25.70;99.90
15044;DHT22;7619;48.562;8.910;2022-07-29T17:43:53;25.70;99.90
15044;DHT22;7619;48.562;8.910;2022-07-29T17:46:23;25.70;99.90
15044;DHT22;7619;48.562;8.910;2022-07-29T17:48:54;25.70;99.90
15044;DHT22;7619;48.562;8.910;2022-07-29T17:51:24;25.70;99.90
15044;DHT22;7619;48.562;8.910;2022-07-29T17:53:53;25.70;99.90
15044;DHT22;7619;48.562;8.910;2022-07-29T17:58:50;25.80;99.90
15044;DHT22;7619;48.562;8.910;2022-07-29T18:01:19;25.80;99.90
15044;DHT22;7619;48.562;8.910;2022-07-29T18:03:48;25.70;99.90
15044;DHT22;7619;48.562;8.910;2022-07-29T18:06:17;25.50;99.90
15044;DHT22;7619;48.562;8.910;2022-07-29T18:08:46;25.50;99.90
15044;DHT22;7619;48.562;8.910;2022-07-29T18:11:15;25.30;99.90
15044;DHT22;7619;48.562;8.910;2022-07-29T18:13:44;25.30;99.90
15044;DHT22;7619;48.562;8.910;2022-07-29T18:16:13;25.10;99.90
15044;DHT22;7619;48.562;8.910;2022-07-29T18:18:43;25.00;99.90
15044;DHT22;7619;48.562;8.910;2022-07-29T18:21:13;24.90;99.90
15044;DHT22;7619;48.562;8.910;2022-07-29T18:23:42;24.90;99.90
15044;DHT22;7619;48.562;8.910;2022-07-29T18:26:11;24.80;99.90
15044;DHT22;7619;48.562;8.910;2022-07-29T18:28:39;24.70;99.90
15044;DHT22;7619;48.562;8.910;2022-07-29T18:31:08;24.60;99.90
15044;DHT22;7619;48.562;8.910;2022-07-29T18:33:37;24.50;99.90
15044;DHT22;7619;48.562;8.910;2022-07-29T18:36:07;24.50;99.40
15044;DHT22;7619;48.562;8.910;2022-07-29T18:38:35;24.40;96.90
15044;DHT22;7619;48.562;8.910;2022-07-29T18:41:04;24.40;92.40
15044;DHT22;7619;48.562;8.910;2022-07-29T18:43:33;24.30;82.00
15044;DHT22;7619;48.562;8.910;2022-07-29T18:46:03;24.20;84.70
15044;DHT22;7619;48.562;8.910;2022-07-29T18:48:33;24.00;70.30
15044;DHT22;7619;48.562;8.910;2022-07-29T18:51:02;23.90;49.20
15044;DHT22;7619;48.562;8.910;2022-07-29T18:53:31;23.80;43.70
15044;DHT22;7619;48.562;8.910;2022-07-29T18:55:59;23.60;27.50
15044;DHT22;7619;48.562;8.910;2022-07-29T18:58:30;23.30;19.20
15044;DHT22;7619;48.562;8.910;2022-07-29T19:00:59;23.30;13.70
15044;DHT22;7619;48.562;8.910;2022-07-29T19:03:28;23.20;1.00
15044;DHT22;7619;48.562;8.910;2022-07-29T19:05:57;23.00;1.00
15044;DHT22;7619;48.562;8.910;2022-07-29T19:08:26;22.90;1.00
15044;DHT22;7619;48.562;8.910;2022-07-29T19:10:55;22.70;1.00